METAR Data
IDs: Format: Raw Decoded Include TAF

Data at: 2338 UTC 25 Oct 2021

PAWN 252313Z AUTO 16014G20KT 3SM -SN BR BKN009 OVC019 M02/M03 A2921 RMK AO2 CIG 006V014 P0000 FZRANO
PAWN 252311Z AUTO 16014G20KT 2 1/2SM -SN BR BKN009 BKN013 OVC019 M02/M03 A2921 RMK AO2 VIS 1 1/2V5 CIG 006V011 P0000 FZRANO
PAWN 252307Z AUTO 16015G20KT 1 3/4SM -SN BR SCT009 BKN015 OVC019 M02/M03 A2921 RMK AO2 VIS 1 1/4V2 1/2 P0000 FZRANO
PAWN 252256Z AUTO 16013KT 5SM -SN BR FEW009 OVC018 M02/M03 A2921 RMK AO2 UPB11E14SNE11B14E29B54 SLP902 P0000 T10171028 FZRANO
PAWN 252228Z AUTO 15012KT 9SM -SN SCT010 OVC016 M01/M02 A2920 RMK AO2 UPB11E14SNE11B14 P0000 FZRANO
PAWN 252156Z AUTO 16013G19KT 6SM -SN BR OVC009 M01/M02 A2920 RMK AO2 CIG 008V013 SLP899 P0000 T10061017 FZRANO
PAWN 252108Z AUTO 15011KT 3SM -SN BR OVC007 M01/M02 A2919 RMK AO2 CIG 004V009 P0000 FZRANO
PAWN 252101Z AUTO 15014KT 1 1/4SM -SN BR OVC007 M02/M02 A2918 RMK AO2 CIG 004V009 P0000 FZRANO
PAWN 252056Z AUTO 14014KT 3/4SM -SN BR OVC005 M02/M03 A2918 RMK AO2 SNB11 CIG 004V009 SLP895 P0000 60000 T10171028 58004 FZRANO
PAWN 252047Z AUTO 13013G21KT 1/2SM SN FZFG BKN005 OVC017 M02/M03 A2918 RMK AO2 SNB11 CIG 004V009 P0000 FZRANO
PAWN 252041Z AUTO 12016G21KT 1/4SM SN FZFG BKN007 OVC017 M02/M03 A2918 RMK AO2 SNB11 P0000 FZRANO
PAWN 252034Z AUTO 12015G21KT 1/4SM SN FZFG SCT005 OVC017 M02/M03 A2918 RMK AO2 SNB11 P0000 FZRANO
PAWN 252027Z AUTO 12016G21KT 3/4SM -SN BR FEW005 OVC017 M02/M03 A2918 RMK AO2 SNB11 P0000 FZRANO
PAWN 252023Z AUTO 12012G18KT 1 3/4SM -SN BR OVC017 M02/M04 A2918 RMK AO2 SNB11 P0000 FZRANO
PAWN 251956Z AUTO 11011KT 10SM OVC019 M02/M04 A2919 RMK AO2 SLP895 T10221039 FZRANO
PAWN 251919Z AUTO 11013KT 10SM SCT011 BKN019 OVC027 M03/M04 A2919 RMK AO2 FZRANO
PAWN 251856Z AUTO 11007KT 10SM BKN013 OVC023 M03/M04 A2919 RMK AO2 SNB04E18 SLP896 P0000 T10331039 FZRANO
PAWN 251806Z AUTO 12012KT 8SM -SN FEW008 OVC013 M03/M04 A2919 RMK AO2 SNB04 P0000 FZRANO
PAWN 251756Z AUTO 12011KT 9SM FEW008 OVC015 M03/M04 A2919 RMK AO2 SNB16E53 SLP897 P0000 60000 T10281039 11017 21039 51001 FZRANO
PAWN 251751Z AUTO 12010KT 9SM -SN FEW008 OVC015 M03/M04 A2919 RMK AO2 SNB16 P0000 FZRANO
PAWN 251656Z AUTO 12015G20KT 9SM BKN015 M03/M04 A2919 RMK AO2 SNE06B42E52 SLP897 P0000 T10331044 FZRANO
PAWN 251647Z AUTO 12015G20KT 9SM -SN BKN015 BKN033 M03/M04 A2919 RMK AO2 SNE06B42 P0000 FZRANO
PAWN 251626Z AUTO 12011KT 10SM SCT014 M03/M04 A2920 RMK AO2 SNE06 P0000 FZRANO
PAWN 251556Z AUTO 12014KT 9SM -SN OVC014 M03/M04 A2919 RMK AO2 SNB47 SLP896 P0000 T10331044 FZRANO
PAWN 251456Z AUTO 11012G18KT 10SM OVC016 M03/M04 A2920 RMK AO2 UPB36E41SNB21E36 SLP901 P0000 60000 T10281039 56006 FZRANO
PAWN 251452Z AUTO 11012KT 10SM OVC016 M03/M04 A2920 RMK AO2 UPB36E41SNB21E36 P0000 FZRANO
PAWN 251431Z AUTO 11011KT 8SM -SN BKN014 OVC021 M02/M03 A2921 RMK AO2 SNB21 P0000 FZRANO
PAWN 251356Z AUTO 11008KT 10SM BKN023 OVC032 M02/M03 A2921 RMK AO2 SNE02 SLP904 P0000 T10221033 FZRANO
PAWN 251314Z AUTO 11008KT 10SM FEW010 SCT014 OVC025 M02/M03 A2922 RMK AO2 SNE02 P0000 FZRANO
PAWN 251256Z AUTO 11009KT 9SM -SN BKN014 OVC027 M02/M03 A2922 RMK AO2 SNE02B46 SLP907 P0000 T10171028 FZRANO
PAWN 251226Z AUTO 13008KT 10SM SCT009 BKN012 OVC030 M02/M02 A2923 RMK AO2 SNE02 P0000 FZRANO
PAWN 251156Z AUTO 12007KT 8SM -SN BKN009 BKN026 OVC033 M02/M02 A2923 RMK AO2 SNB1059E33B51 CIG 007V013 SLP910 P0000 60000 T10171022 11006 21017 58012 FZRANO
PAWN 251129Z AUTO 12008KT 9SM -SN FEW013 BKN021 OVC033 M02/M03 A2923 RMK AO2 SNB1059 P0000 FZRANO
PAWN 251056Z AUTO 13010KT 10SM OVC033 M02/M03 A2924 RMK AO2 SLP913 T10171028 FZRANO
PAWN 251028Z AUTO 12010KT 10SM SCT016 OVC039 M01/M02 A2925 RMK AO2 FZRANO
PAWN 250956Z AUTO 12010KT 10SM BKN018 OVC038 M01/M02 A2925 RMK AO2 SNE15 SLP917 P0000 T10111022 FZRANO
PAWN 250941Z AUTO 12011KT 10SM BKN018 OVC040 M01/M03 A2926 RMK AO2 SNE15 P0000 FZRANO
PAWN 250856Z AUTO 12010KT 10SM -SN BKN042 OVC050 M01/M03 A2926 RMK AO2 SNE08B54 SLP920 P0000 60000 T10111028 56007 FZRANO
PAWN 250828Z AUTO 12010KT 10SM FEW014 SCT018 OVC044 M01/M03 A2926 RMK AO2 SNE08 P0000 FZRANO
PAWN 250756Z AUTO 11011KT 9SM -SN OVC014 M01/M02 A2927 RMK AO2 SNB53 SLP922 P0000 T10111022 410061039 FZRANO
PAWN 250738Z AUTO 11011KT 10SM OVC014 M01/M02 A2927 RMK AO2 FZRANO
PAWN 250717Z AUTO 12010KT 10SM BKN016 OVC050 M01/M02 A2927 RMK AO2 FZRANO
PAWN 250656Z AUTO 11009KT 10SM FEW018 OVC048 M01/M02 A2927 RMK AO2 SLP924 T10111022 FZRANO
PAWN 250556Z AUTO 11011KT 10SM SCT033 OVC044 M01/M02 A2928 RMK AO2 SLP928 60000 T10111022 11006 21011 56010 FZRANO
PAWN 250529Z AUTO 11008KT 10SM FEW021 SCT026 OVC035 M01/M02 A2929 RMK AO2 FZRANO
PAWN 250456Z AUTO 11010KT 10SM OVC029 M01/M03 A2929 RMK AO2 SLP931 T10061028 FZRANO
PAWN 250443Z AUTO 12010KT 10SM BKN029 OVC038 M01/M03 A2930 RMK AO2 FZRANO
PAWN 250356Z AUTO 12011KT 10SM OVC038 M01/M03 A2930 RMK AO2 SLP934 T10111028 FZRANO
PAWN 250256Z AUTO 12009KT 10SM FEW017 OVC032 M01/M03 A2931 RMK AO2 SNE15 SLP938 P0000 60000 T10111028 56014 FZRANO
PAWN 250218Z AUTO 12009KT 9SM FEW008 SCT019 OVC030 M01/M02 A2932 RMK AO2 SNE15 P0000 FZRANO
PAWN 250210Z AUTO 12010KT 4SM -SN BR FEW006 BKN026 OVC030 M01/M02 A2932 RMK AO2 P0000 FZRANO
PAWN 250156Z AUTO 11010KT 8SM -SN OVC030 M01/M02 A2932 RMK AO2 SNB44 SLP941 P0000 T10111022 FZRANO
PAWN 250145Z AUTO 12009KT 10SM -SN FEW017 OVC030 M01/M03 A2933 RMK AO2 SNB44 P0000 FZRANO
PAWN 250118Z AUTO 11007KT 10SM FEW011 SCT021 OVC025 M01/M03 A2933 RMK AO2 FZRANO
PAWN 250110Z AUTO 12007KT 10SM BKN013 BKN020 OVC025 M01/M03 A2933 RMK AO2 FZRANO
PAWN 250056Z AUTO 12007KT 10SM BKN015 OVC022 M01/M03 A2934 RMK AO2 SNB04E15 SLP945 P0000 T10111028 FZRANO
PAWN 242356Z AUTO 10005KT 10SM OVC017 M01/M03 A2935 RMK AO2 SLP952 60000 T10111028 11011 21039 58009 FZRANO
PAWN 242334Z AUTO 07004KT 10SM OVC017 M02/M03 A2936 RMK AO2 FZRANO
PAWN 242324Z AUTO 05005KT 10SM BKN013 OVC019 M02/M03 A2936 RMK AO2 FZRANO
PAWN 242256Z AUTO 05005KT 9SM OVC019 M02/M03 A2936 RMK AO2 SNE56 SLP955 P0000 T10171028 FZRANO
PAWN 242235Z AUTO 05004KT 4SM -SN BR FEW013 OVC021 M02/M03 A2937 RMK AO2 P0000 FZRANO
PAWN 242223Z AUTO 06004KT 2SM -SN BR FEW013 OVC021 M02/M03 A2937 RMK AO2 P0000 FZRANO
PAWN 242156Z AUTO 04003KT 4SM -SN BR FEW013 BKN021 OVC034 M02/M03 A2937 RMK AO2 SLP958 P0000 T10221033 FZRANO
PAWN 242056Z AUTO 04005KT 4SM -SN BR OVC025 M03/M04 A2938 RMK AO2 SLP961 P0000 60000 T10281039 56005 FZRANO
PAWN 242053Z AUTO 04006KT 3SM -SN BR BKN025 OVC034 M03/M04 A2938 RMK AO2 P0000 FZRANO
PAWN 241956Z AUTO 04005KT 2SM -SN BR OVC018 M03/M04 A2939 RMK AO2 VIS 1 3/4V3 SLP963 P0000 T10331044 FZRANO
PAWN 241919Z AUTO 03004KT 2SM -SN BR OVC020 M03/M04 A2939 RMK AO2 VIS 1 1/2V4 P0000 FZRANO
PAWN 241911Z AUTO 02005KT 1 3/4SM -SN BR OVC020 M04/M05 A2939 RMK AO2 P0000 FZRANO
PAWN 241856Z AUTO 03004KT 2 1/2SM -SN BR BKN022 OVC031 M04/M05 A2939 RMK AO2 VIS 1 1/2V3 SLP967 P0000 T10391050 FZRANO
PAWN 241851Z AUTO 03004KT 1 1/2SM -SN BR BKN022 OVC031 M04/M05 A2939 RMK AO2 P0000 FZRANO
PAWN 241841Z AUTO 03005KT 2 1/2SM -SN BR SCT020 BKN029 OVC038 M04/M05 A2939 RMK AO2 VIS 1 3/4V4 P0000 FZRANO
PAWN 241831Z AUTO 02005KT 1 1/2SM -SN BR BKN020 OVC027 M04/M05 A2939 RMK AO2 P0000 FZRANO
PAWN 241756Z AUTO VRB03KT 2 1/2SM -SN BR SCT022 BKN026 OVC035 M04/M05 A2940 RMK AO2 VIS 2V4 SLP969 P0000 60000 T10391050 11028 21039 58003 FZRANO
PAWN 241728Z AUTO 03005KT 9SM -SN SCT026 BKN036 OVC055 M04/M05 A2940 RMK AO2 P0000 FZRANO
PAWN 241714Z AUTO 02004KT 7SM -SN BKN026 BKN033 OVC046 M04/M05 A2941 RMK AO2 P0000 FZRANO
PAWN 241656Z AUTO 03003KT 3SM -SN BR FEW026 SCT030 OVC046 M04/M05 A2941 RMK AO2 SLP971 P0000 T10391050 FZRANO
PAWN 241556Z AUTO 02003KT 4SM -SN BR OVC046 M03/M06 A2941 RMK AO2 SLP972 P0000 T10331056 FZRANO
PAWN 241456Z AUTO 02003KT 9SM -SN OVC048 M03/M06 A2941 RMK AO2 SNB43 SLP971 P0000 60000 T10331061 51002 FZRANO
PAWN 241356Z AUTO 01004KT 10SM OVC048 M03/M06 A2941 RMK AO2 SNE26 SLP971 P0000 T10331061 FZRANO
PAWN 241256Z AUTO 03003KT 9SM -SN FEW055 OVC070 M03/M06 A2941 RMK AO2 SLP971 P0000 T10281061 FZRANO
PAWN 241156Z AUTO 36006KT 9SM -SN OVC035 M03/M06 A2941 RMK AO2 SNB05 SLP970 P0000 60000 T10331056 11017 21050 51008 FZRANO